createdAt,value
2017-07-20T00:01:25.959Z,72.30
2017-07-20T00:03:53.519Z,72.90
2017-07-20T00:06:21.823Z,73.90
2017-07-20T00:08:49.351Z,73.90
2017-07-20T00:11:16.896Z,75.00
2017-07-20T00:13:44.430Z,75.70
2017-07-20T00:16:11.972Z,76.20
2017-07-20T00:18:39.521Z,76.20
2017-07-20T00:21:07.819Z,78.20
2017-07-20T00:23:35.353Z,78.10
2017-07-20T00:26:03.683Z,77.70
2017-07-20T00:28:31.223Z,77.60
2017-07-20T00:30:58.772Z,78.90
2017-07-20T00:33:26.327Z,78.50
2017-07-20T00:35:54.638Z,78.40
2017-07-20T00:38:22.220Z,78.30
2017-07-20T00:40:49.779Z,78.40
2017-07-20T00:43:17.347Z,78.80
2017-07-20T00:45:44.895Z,80.00
2017-07-20T00:48:12.709Z,80.50
2017-07-20T00:50:40.252Z,81.10
2017-07-20T00:53:07.797Z,81.30
2017-07-20T00:55:35.347Z,81.60
2017-07-20T00:58:03.670Z,82.50
2017-07-20T01:00:31.183Z,82.50
2017-07-20T01:02:58.759Z,82.50
2017-07-20T01:05:27.087Z,83.00
2017-07-20T01:07:54.983Z,83.00
2017-07-20T01:10:22.573Z,82.70
2017-07-20T01:12:50.120Z,83.80
2017-07-20T01:15:18.458Z,85.60
2017-07-20T01:17:47.031Z,85.50
2017-07-20T01:20:14.567Z,86.00
2017-07-20T01:22:42.852Z,88.00
2017-07-20T01:25:10.411Z,88.00
2017-07-20T01:27:38.705Z,89.30
2017-07-20T01:30:06.246Z,89.10
2017-07-20T01:32:34.593Z,90.00
2017-07-20T01:35:02.125Z,89.30
2017-07-20T01:37:29.659Z,89.60
2017-07-20T01:39:58.022Z,89.20
2017-07-20T01:42:25.579Z,89.10
2017-07-20T01:44:53.100Z,88.70
2017-07-20T01:47:20.719Z,89.50
2017-07-20T01:49:48.274Z,90.30
2017-07-20T01:52:15.809Z,90.30
2017-07-20T01:54:43.391Z,90.40
2017-07-20T01:57:10.960Z,90.30
2017-07-20T01:59:38.510Z,90.20
2017-07-20T02:02:06.093Z,90.30
2017-07-20T02:04:33.653Z,89.50
2017-07-20T02:07:01.973Z,89.30
2017-07-20T02:09:30.336Z,88.00
2017-07-20T02:11:57.996Z,87.90
2017-07-20T02:14:25.546Z,88.10
2017-07-20T02:16:54.117Z,87.50
2017-07-20T02:19:21.660Z,87.30
2017-07-20T02:21:49.205Z,87.30
2017-07-20T02:24:17.537Z,87.10
2017-07-20T02:26:45.053Z,87.10
2017-07-20T02:29:13.548Z,86.90
2017-07-20T02:31:41.124Z,87.50
2017-07-20T02:34:08.667Z,88.10
2017-07-20T02:36:36.985Z,88.60
2017-07-20T02:39:04.545Z,88.60
2017-07-20T02:41:33.039Z,88.50
2017-07-20T02:44:00.575Z,88.70
2017-07-20T02:46:28.141Z,88.60
2017-07-20T02:48:56.510Z,88.30
2017-07-20T02:51:24.045Z,88.20
2017-07-20T02:53:51.622Z,87.20
2017-07-20T02:56:19.937Z,86.80
2017-07-20T02:58:47.467Z,86.70
2017-07-20T03:01:15.017Z,85.60
2017-07-20T03:03:42.558Z,84.10
2017-07-20T03:06:10.179Z,83.30
2017-07-20T03:08:38.515Z,81.90
2017-07-20T03:11:06.072Z,81.80
2017-07-20T03:13:33.624Z,81.10
2017-07-20T03:16:01.197Z,80.60
2017-07-20T03:18:28.734Z,80.30
2017-07-20T03:20:56.259Z,79.90
2017-07-20T03:23:23.821Z,80.30
2017-07-20T03:25:51.357Z,79.80
2017-07-20T03:28:18.919Z,79.70
2017-07-20T03:30:46.487Z,79.80
2017-07-20T03:33:14.028Z,80.40
2017-07-20T03:35:41.584Z,81.00
2017-07-20T03:38:09.194Z,81.20
2017-07-20T03:40:36.731Z,81.20
2017-07-20T03:43:04.279Z,81.40
2017-07-20T03:45:32.827Z,81.50
2017-07-20T03:48:00.372Z,81.30
2017-07-20T03:50:27.927Z,81.40
2017-07-20T03:52:55.539Z,81.40
2017-07-20T03:55:23.104Z,81.30
2017-07-20T03:57:51.419Z,81.50
2017-07-20T04:00:18.962Z,81.40
2017-07-20T04:02:47.303Z,82.50
2017-07-20T04:05:14.825Z,82.40
2017-07-20T04:07:42.352Z,82.00
2017-07-20T04:10:11.690Z,83.10
2017-07-20T04:12:39.236Z,83.00
2017-07-20T04:15:06.838Z,81.90
2017-07-20T04:17:34.395Z,82.10
2017-07-20T04:20:01.957Z,82.00
2017-07-20T04:22:29.496Z,81.00
2017-07-20T04:24:57.947Z,80.40
2017-07-20T04:27:25.506Z,80.30
2017-07-20T04:29:53.042Z,80.30
2017-07-20T04:32:20.608Z,80.30
2017-07-20T04:34:48.182Z,79.70
2017-07-20T04:37:15.739Z,79.30
2017-07-20T04:39:43.559Z,79.70
2017-07-20T04:42:11.144Z,79.50
2017-07-20T04:44:38.699Z,79.00
2017-07-20T04:47:07.035Z,78.70
2017-07-20T04:49:34.571Z,78.70
2017-07-20T04:52:02.119Z,78.60
2017-07-20T04:54:30.432Z,78.60
2017-07-20T04:56:57.969Z,78.60
2017-07-20T04:59:25.504Z,78.20
2017-07-20T05:01:53.035Z,77.50
2017-07-20T05:04:20.569Z,77.20
2017-07-20T05:06:48.117Z,77.50
2017-07-20T05:09:16.455Z,76.70
2017-07-20T05:11:43.995Z,76.60
2017-07-20T05:14:11.557Z,76.40
2017-07-20T05:16:39.135Z,76.30
2017-07-20T05:19:06.708Z,75.90
2017-07-20T05:21:34.233Z,75.00
2017-07-20T05:24:01.969Z,75.60
2017-07-20T05:26:30.292Z,74.30
2017-07-20T05:28:57.810Z,74.20
2017-07-20T05:31:25.381Z,74.70
2017-07-20T05:33:52.960Z,73.90
2017-07-20T05:36:21.249Z,74.00
2017-07-20T05:38:48.811Z,73.90
2017-07-20T05:41:16.388Z,73.60
2017-07-20T05:43:43.943Z,73.20
2017-07-20T05:46:12.487Z,73.30
2017-07-20T05:48:40.027Z,72.60
2017-07-20T05:51:07.561Z,73.20
2017-07-20T05:53:35.119Z,72.90
2017-07-20T05:56:03.039Z,72.50
2017-07-20T05:58:30.697Z,72.90
2017-07-20T06:00:58.266Z,72.70
2017-07-20T06:03:25.881Z,71.90
2017-07-20T06:05:54.280Z,67.50
2017-07-20T06:08:22.658Z,67.40
2017-07-20T06:10:50.824Z,65.20
2017-07-20T06:13:18.432Z,64.90
2017-07-20T06:15:48.923Z,65.30
2017-07-20T06:18:17.224Z,64.20
2017-07-20T06:20:45.084Z,64.20
2017-07-20T06:23:12.673Z,62.50
2017-07-20T06:25:40.205Z,60.50
2017-07-20T06:28:08.494Z,59.10
2017-07-20T06:30:36.809Z,55.90
2017-07-20T06:33:04.341Z,55.90
2017-07-20T06:35:32.637Z,55.40
2017-07-20T06:38:01.058Z,55.30
2017-07-20T06:40:28.585Z,54.80
2017-07-20T06:42:56.134Z,55.00
2017-07-20T06:45:23.734Z,54.40
2017-07-20T06:47:51.281Z,53.50
2017-07-20T06:50:18.824Z,54.50
2017-07-20T06:52:46.400Z,53.80
2017-07-20T06:55:13.943Z,54.20
2017-07-20T06:57:42.246Z,54.90
2017-07-20T07:00:09.801Z,54.90
2017-07-20T07:02:37.331Z,55.70
2017-07-20T07:05:04.867Z,56.20
2017-07-20T07:07:32.452Z,57.00
2017-07-20T07:09:59.999Z,58.90
2017-07-20T07:12:27.556Z,60.00
2017-07-20T07:14:55.127Z,60.30
2017-07-20T07:17:27.371Z,61.30
2017-07-20T07:19:55.939Z,58.30
2017-07-20T07:22:24.795Z,57.20
2017-07-20T07:24:52.322Z,56.90
2017-07-20T07:27:19.872Z,56.40
2017-07-20T07:29:47.454Z,54.70
2017-07-20T07:32:14.994Z,54.90
2017-07-20T07:34:42.549Z,53.70
2017-07-20T07:37:10.116Z,51.80
2017-07-20T07:39:38.402Z,53.50
2017-07-20T07:42:06.708Z,54.30
2017-07-20T07:44:35.276Z,54.30
2017-07-20T07:47:02.836Z,53.40
2017-07-20T07:49:31.150Z,55.50
2017-07-20T07:51:58.717Z,55.50
2017-07-20T07:54:26.279Z,55.10
2017-07-20T07:56:53.802Z,53.20
2017-07-20T07:59:22.133Z,53.70
2017-07-20T08:01:49.715Z,53.70
2017-07-20T08:04:18.087Z,51.40
2017-07-20T08:06:45.647Z,51.40
2017-07-20T08:09:13.193Z,51.90
2017-07-20T08:11:40.738Z,50.30
2017-07-20T08:14:09.071Z,47.40
2017-07-20T08:16:36.643Z,48.00
2017-07-20T08:19:04.171Z,47.10
2017-07-20T08:21:31.706Z,45.90
2017-07-20T08:23:59.332Z,45.90
2017-07-20T08:26:26.877Z,44.40
2017-07-20T08:28:58.921Z,42.60
2017-07-20T08:31:35.349Z,42.00
2017-07-20T08:34:02.907Z,41.10
2017-07-20T08:36:32.552Z,42.50
2017-07-20T08:39:00.239Z,42.00
2017-07-20T08:41:27.797Z,42.40
2017-07-20T08:43:55.354Z,42.60
2017-07-20T08:46:22.890Z,42.10
2017-07-20T08:48:50.432Z,42.00
2017-07-20T08:51:17.990Z,42.90
2017-07-20T08:53:45.840Z,41.90
2017-07-20T08:56:13.383Z,43.10
2017-07-20T08:58:40.969Z,41.50
2017-07-20T09:01:08.537Z,42.00
2017-07-20T09:03:36.090Z,42.40
2017-07-20T09:06:03.678Z,40.60
2017-07-20T09:08:31.226Z,40.90
2017-07-20T09:10:58.792Z,43.30
2017-07-20T09:13:26.393Z,41.40
2017-07-20T09:15:54.731Z,43.70
2017-07-20T09:18:22.278Z,43.70
2017-07-20T09:20:49.833Z,43.70
2017-07-20T09:23:18.137Z,39.80
2017-07-20T09:25:45.670Z,39.70
2017-07-20T09:28:14.023Z,44.80
2017-07-20T09:30:41.566Z,44.80
2017-07-20T09:33:09.080Z,43.60
2017-07-20T09:35:37.405Z,45.00
2017-07-20T09:38:04.941Z,44.90
2017-07-20T09:40:33.235Z,45.90
2017-07-20T09:43:00.802Z,45.90
2017-07-20T09:45:30.190Z,45.20
2017-07-20T09:47:58.495Z,43.90
2017-07-20T09:50:26.082Z,43.90
2017-07-20T09:52:53.645Z,42.40
2017-07-20T09:55:21.183Z,43.10
2017-07-20T09:57:48.736Z,44.80
2017-07-20T10:00:16.269Z,46.00
2017-07-20T10:02:43.812Z,44.90
2017-07-20T10:05:11.375Z,44.00
2017-07-20T10:07:38.909Z,43.60
2017-07-20T10:10:06.479Z,44.60
2017-07-20T10:12:34.059Z,44.70
2017-07-20T10:15:01.577Z,44.70
2017-07-20T10:17:29.448Z,45.20
2017-07-20T10:19:57.101Z,46.00
2017-07-20T10:22:25.435Z,43.60
2017-07-20T10:24:53.031Z,43.50
2017-07-20T10:27:20.617Z,42.70
2017-07-20T10:29:48.957Z,45.40
2017-07-20T10:32:16.492Z,45.30
2017-07-20T10:34:44.066Z,45.90
2017-07-20T10:37:11.590Z,47.90
2017-07-20T10:39:40.094Z,49.30
2017-07-20T10:42:07.640Z,49.30
2017-07-20T10:44:35.954Z,50.90
2017-07-20T10:47:03.495Z,50.70
2017-07-20T10:49:31.836Z,53.20
2017-07-20T10:51:59.418Z,53.10
2017-07-20T10:54:27.047Z,54.50
2017-07-20T10:56:54.659Z,54.60
2017-07-20T10:59:22.994Z,55.40
2017-07-20T11:01:50.558Z,55.40
2017-07-20T11:04:18.143Z,56.30
2017-07-20T11:06:45.671Z,57.80
2017-07-20T11:09:13.203Z,57.70
2017-07-20T11:11:41.536Z,58.30
2017-07-20T11:14:09.065Z,58.20
2017-07-20T11:16:37.502Z,56.10
2017-07-20T11:19:05.145Z,56.00
2017-07-20T11:21:32.718Z,56.30
2017-07-20T11:24:01.023Z,55.90
2017-07-20T11:26:28.595Z,55.90
2017-07-20T11:28:56.113Z,55.60
2017-07-20T11:31:23.643Z,56.90
2017-07-20T11:33:51.966Z,56.10
2017-07-20T11:36:23.780Z,56.00
2017-07-20T11:38:52.102Z,57.00
2017-07-20T11:41:19.623Z,56.90
2017-07-20T11:43:47.941Z,57.80
2017-07-20T11:46:15.513Z,57.80
2017-07-20T11:48:43.398Z,59.20
2017-07-20T11:51:10.946Z,58.80
2017-07-20T11:53:38.543Z,58.90
2017-07-20T11:56:06.075Z,60.30
2017-07-20T11:58:33.610Z,61.40
2017-07-20T12:01:01.931Z,65.10
2017-07-20T12:03:29.469Z,65.00
2017-07-20T12:05:57.983Z,67.00
2017-07-20T12:08:25.547Z,73.40
2017-07-20T12:10:53.090Z,77.50
2017-07-20T12:13:20.997Z,79.10
2017-07-20T12:15:48.558Z,82.90
2017-07-20T12:18:16.101Z,86.30
2017-07-20T12:20:43.658Z,86.90
2017-07-20T12:23:11.202Z,89.40
2017-07-20T12:25:39.487Z,91.60
2017-07-20T12:28:07.779Z,92.10
2017-07-20T12:30:35.338Z,92.10
2017-07-20T12:33:02.886Z,92.90
2017-07-20T12:35:31.223Z,93.80
2017-07-20T12:37:58.788Z,93.80
2017-07-20T12:40:26.370Z,93.90
2017-07-20T12:42:53.904Z,94.20
2017-07-20T12:45:21.477Z,94.30
2017-07-20T12:47:49.020Z,94.00
2017-07-20T12:50:16.578Z,93.50
2017-07-20T12:52:44.158Z,94.80
2017-07-20T12:55:11.694Z,94.30
2017-07-20T12:57:39.323Z,94.60
2017-07-20T13:00:06.900Z,95.00
2017-07-20T13:02:35.201Z,95.50
2017-07-20T13:05:03.901Z,95.10
2017-07-20T13:07:32.222Z,95.00
2017-07-20T13:09:59.768Z,95.00
2017-07-20T13:12:27.323Z,95.10
2017-07-20T13:14:54.882Z,95.20
2017-07-20T13:17:22.421Z,94.30
2017-07-20T13:19:49.942Z,95.20
2017-07-20T13:22:17.502Z,94.80
2017-07-20T13:24:45.108Z,94.80
2017-07-20T13:27:12.651Z,94.40
2017-07-20T13:29:40.243Z,94.20
2017-07-20T13:32:08.528Z,94.50
2017-07-20T13:34:36.836Z,93.80
2017-07-20T13:37:04.390Z,93.60
2017-07-20T13:39:31.944Z,94.00
2017-07-20T13:42:00.484Z,94.20
2017-07-20T13:44:28.853Z,93.50
2017-07-20T13:46:56.394Z,93.50
2017-07-20T13:49:23.917Z,93.70
2017-07-20T13:51:51.457Z,92.10
2017-07-20T13:54:18.973Z,92.80
2017-07-20T13:56:47.319Z,93.30
2017-07-20T13:59:15.724Z,93.70
2017-07-20T14:01:45.158Z,93.80
2017-07-20T14:04:12.726Z,93.70
2017-07-20T14:06:40.290Z,94.30
2017-07-20T14:09:07.850Z,94.60
2017-07-20T14:11:35.667Z,94.20
2017-07-20T14:14:04.047Z,93.60
2017-07-20T14:16:31.604Z,93.50
2017-07-20T14:18:59.149Z,93.10
2017-07-20T14:21:26.685Z,93.20
2017-07-20T14:23:54.217Z,92.40
2017-07-20T14:26:21.749Z,93.80
2017-07-20T14:28:49.351Z,93.30
2017-07-20T14:31:16.929Z,93.50
2017-07-20T14:33:44.497Z,93.00
2017-07-20T14:36:12.828Z,92.60
2017-07-20T14:38:40.407Z,92.60
2017-07-20T14:41:08.885Z,92.90
2017-07-20T14:43:36.448Z,93.20
2017-07-20T14:46:04.005Z,92.50
2017-07-20T14:48:31.517Z,91.90
2017-07-20T14:50:59.053Z,91.70
2017-07-20T14:53:26.594Z,91.60
2017-07-20T14:55:54.132Z,91.00
2017-07-20T14:58:23.437Z,90.00
2017-07-20T15:00:50.978Z,88.80
2017-07-20T15:03:18.531Z,85.20
2017-07-20T15:05:46.092Z,85.30
2017-07-20T15:08:13.626Z,83.60
2017-07-20T15:10:41.174Z,85.10
2017-07-20T15:13:08.755Z,83.00
2017-07-20T15:15:36.303Z,78.90
2017-07-20T15:18:03.841Z,74.70
2017-07-20T15:20:32.371Z,67.00
2017-07-20T15:22:59.888Z,64.10
2017-07-20T15:25:28.230Z,57.90
2017-07-20T15:27:55.803Z,57.80
2017-07-20T15:30:25.587Z,55.50
2017-07-20T15:32:53.385Z,55.50
2017-07-20T15:35:22.167Z,54.20
2017-07-20T15:37:49.710Z,51.80
2017-07-20T15:40:17.317Z,48.70
2017-07-20T15:42:45.863Z,47.70
2017-07-20T15:45:13.391Z,47.70
2017-07-20T15:47:41.712Z,47.00
2017-07-20T15:50:09.295Z,47.40
2017-07-20T15:52:36.845Z,48.50
2017-07-20T15:55:04.422Z,49.40
2017-07-20T15:57:31.996Z,48.30
2017-07-20T16:00:00.355Z,44.90
2017-07-20T16:02:27.933Z,44.80
2017-07-20T16:04:55.504Z,44.60
2017-07-20T16:07:23.054Z,44.00
2017-07-20T16:09:50.576Z,44.30
2017-07-20T16:12:18.918Z,47.00
2017-07-20T16:14:46.457Z,47.00
2017-07-20T16:17:13.997Z,46.90
2017-07-20T16:19:42.331Z,46.20
2017-07-20T16:22:09.888Z,46.20
2017-07-20T16:24:37.430Z,45.40
2017-07-20T16:27:05.031Z,45.40
2017-07-20T16:29:32.572Z,43.80
2017-07-20T16:32:00.130Z,44.80
2017-07-20T16:34:27.705Z,44.20
2017-07-20T16:36:55.256Z,43.40
2017-07-20T16:39:22.801Z,43.90
2017-07-20T16:41:51.359Z,43.40
2017-07-20T16:44:19.707Z,41.60
2017-07-20T16:46:47.462Z,41.60
2017-07-20T16:49:15.045Z,44.80
2017-07-20T16:51:42.601Z,48.90
2017-07-20T16:54:10.122Z,51.10
2017-07-20T16:56:38.473Z,56.40
2017-07-20T16:59:06.045Z,56.40
2017-07-20T17:01:34.370Z,59.30
2017-07-20T17:04:01.983Z,59.20
2017-07-20T17:06:29.499Z,61.20
2017-07-20T17:08:59.125Z,63.10
2017-07-20T17:11:26.689Z,63.60
2017-07-20T17:13:55.443Z,65.80
2017-07-20T17:16:24.276Z,67.00
2017-07-20T17:18:51.892Z,67.00
2017-07-20T17:21:19.444Z,69.20
2017-07-20T17:23:47.001Z,70.00
2017-07-20T17:26:14.545Z,70.90
2017-07-20T17:28:42.111Z,72.00
2017-07-20T17:31:09.660Z,72.60
2017-07-20T17:33:37.244Z,72.90
2017-07-20T17:36:04.780Z,72.80
2017-07-20T17:38:32.342Z,72.30
2017-07-20T17:40:59.926Z,73.10
2017-07-20T17:43:27.505Z,73.40
2017-07-20T17:45:56.129Z,73.50
2017-07-20T17:48:23.768Z,73.70
2017-07-20T17:50:52.897Z,73.60
2017-07-20T17:53:21.908Z,73.40
2017-07-20T17:55:50.833Z,74.30
2017-07-20T17:58:18.380Z,74.20
2017-07-20T18:00:45.928Z,73.90
2017-07-20T18:03:13.513Z,74.60
2017-07-20T18:05:41.052Z,74.60
2017-07-20T18:08:09.339Z,76.20
2017-07-20T18:10:36.981Z,76.10
2017-07-20T18:13:04.737Z,77.10
2017-07-20T18:15:32.529Z,76.90
2017-07-20T18:18:01.449Z,79.60
2017-07-20T18:20:29.010Z,79.40
2017-07-20T18:22:56.581Z,80.50
2017-07-20T18:25:24.437Z,80.70
2017-07-20T18:27:52.036Z,81.50
2017-07-20T18:30:19.683Z,80.20
2017-07-20T18:32:47.249Z,81.40
2017-07-20T18:35:14.810Z,81.70
2017-07-20T18:37:45.112Z,82.30
2017-07-20T18:40:13.438Z,85.30
2017-07-20T18:42:40.986Z,85.30
2017-07-20T18:45:08.595Z,85.80
2017-07-20T18:47:36.249Z,86.50
2017-07-20T18:50:03.919Z,88.10
2017-07-20T18:52:32.752Z,87.80
2017-07-20T18:55:01.195Z,89.10
2017-07-20T18:57:28.766Z,89.10
2017-07-20T18:59:56.297Z,90.10
2017-07-20T19:02:23.917Z,90.10
2017-07-20T19:04:51.472Z,90.10
2017-07-20T19:07:19.023Z,90.40
2017-07-20T19:09:46.612Z,90.10
2017-07-20T19:12:14.940Z,90.50
2017-07-20T19:14:42.481Z,90.50
2017-07-20T19:17:10.051Z,90.90
2017-07-20T19:19:37.604Z,91.30
2017-07-20T19:22:05.137Z,91.80
2017-07-20T19:24:32.696Z,92.00
2017-07-20T19:27:00.253Z,92.40
2017-07-20T19:29:27.951Z,92.70
2017-07-20T19:31:55.687Z,93.10
2017-07-20T19:34:23.650Z,93.40
2017-07-20T19:36:52.502Z,93.70
2017-07-20T19:39:20.927Z,94.80
2017-07-20T19:41:49.287Z,94.70
2017-07-20T19:44:16.863Z,95.20
2017-07-20T19:46:44.401Z,95.30
2017-07-20T19:49:12.720Z,95.50
2017-07-20T19:51:40.245Z,95.50
2017-07-20T19:54:08.575Z,95.60
2017-07-20T19:56:36.105Z,95.60
2017-07-20T19:59:11.703Z,95.50
2017-07-20T20:01:40.758Z,95.80
2017-07-20T20:04:14.400Z,95.70
2017-07-20T20:06:42.788Z,95.70
2017-07-20T20:09:10.880Z,95.60
2017-07-20T20:11:39.351Z,95.60
2017-07-20T20:14:07.220Z,95.80
2017-07-20T20:16:35.854Z,96.40
2017-07-20T20:19:03.861Z,96.40
2017-07-20T20:21:32.447Z,96.70
2017-07-20T20:24:00.167Z,96.50
2017-07-20T20:26:27.806Z,96.60
2017-07-20T20:28:55.406Z,97.20
2017-07-20T20:31:23.725Z,97.90
2017-07-20T20:33:51.283Z,97.90
2017-07-20T20:36:19.008Z,97.90
2017-07-20T20:38:47.475Z,98.50
2017-07-20T20:41:15.089Z,98.50
2017-07-20T20:43:42.662Z,98.40
2017-07-20T20:46:12.006Z,98.40
2017-07-20T20:48:42.860Z,98.40
2017-07-20T20:51:10.527Z,98.30
2017-07-20T20:53:41.697Z,98.50
2017-07-20T20:56:10.407Z,98.70
2017-07-20T20:58:38.104Z,98.70
2017-07-20T21:01:09.508Z,98.80
2017-07-20T21:03:37.214Z,98.90
2017-07-20T21:08:41.455Z,98.60
2017-07-20T21:11:09.032Z,98.60
2017-07-20T21:13:36.628Z,98.50
2017-07-20T21:16:04.178Z,98.30
2017-07-20T21:18:31.777Z,98.20
2017-07-20T21:20:59.926Z,98.60
2017-07-20T21:23:27.528Z,98.90
2017-07-20T21:25:55.117Z,99.30
2017-07-20T21:28:22.699Z,99.50
2017-07-20T21:30:50.250Z,99.70
2017-07-20T21:33:17.808Z,99.90
2017-07-20T21:35:45.371Z,99.90
2017-07-20T21:38:12.896Z,99.90
2017-07-20T21:40:40.488Z,99.90
2017-07-20T21:43:08.012Z,99.90
2017-07-20T21:45:35.537Z,99.90
2017-07-20T21:48:04.802Z,99.90
2017-07-20T21:50:32.368Z,99.90
2017-07-20T21:53:00.694Z,99.90
2017-07-20T21:55:28.261Z,99.90
2017-07-20T21:57:55.867Z,99.90
2017-07-20T22:00:23.451Z,99.90
2017-07-20T22:02:51.023Z,99.90
2017-07-20T22:05:18.561Z,99.90
2017-07-20T22:07:46.124Z,99.90
2017-07-20T22:10:14.450Z,99.90
2017-07-20T22:12:42.001Z,99.90
2017-07-20T22:15:09.587Z,99.90
2017-07-20T22:17:37.136Z,99.90
2017-07-20T22:20:04.704Z,99.90
2017-07-20T22:22:32.359Z,99.90
2017-07-20T22:24:59.927Z,99.90
2017-07-20T22:27:28.387Z,99.90
2017-07-20T22:29:55.927Z,99.90
2017-07-20T22:32:23.511Z,99.90
2017-07-20T22:34:51.861Z,99.90
2017-07-20T22:37:19.425Z,99.90
2017-07-20T22:39:47.013Z,99.90
2017-07-20T22:42:14.556Z,99.90
2017-07-20T22:44:42.123Z,99.90
2017-07-20T22:47:09.705Z,99.90
2017-07-20T22:49:37.229Z,99.90
2017-07-20T22:52:04.751Z,99.90
2017-07-20T22:54:32.373Z,99.90
2017-07-20T22:56:59.921Z,99.90
2017-07-20T22:59:27.457Z,99.90
2017-07-20T23:01:55.029Z,99.90
2017-07-20T23:04:22.564Z,99.90
2017-07-20T23:06:50.882Z,99.90
2017-07-20T23:09:18.441Z,99.90
2017-07-20T23:11:45.984Z,99.80
2017-07-20T23:14:14.288Z,99.50
2017-07-20T23:16:41.839Z,99.50
2017-07-20T23:19:10.157Z,99.60
2017-07-20T23:21:37.721Z,99.60
2017-07-20T23:24:05.274Z,99.60
2017-07-20T23:26:32.835Z,99.60
2017-07-20T23:29:00.382Z,99.80
2017-07-20T23:31:27.973Z,99.50
2017-07-20T23:33:55.573Z,99.40
2017-07-20T23:36:23.106Z,99.40
2017-07-20T23:38:50.668Z,99.60
2017-07-20T23:41:18.199Z,99.50
2017-07-20T23:43:45.741Z,99.70
2017-07-20T23:46:13.783Z,99.60
2017-07-20T23:48:41.319Z,99.80
2017-07-20T23:51:08.855Z,99.90
2017-07-20T23:53:37.177Z,99.60
2017-07-20T23:56:04.761Z,99.60
2017-07-20T23:58:32.318Z,99.70
